createdAt,value
2022-10-07T00:00:55.057Z,16.90
2022-10-07T00:03:23.727Z,16.90
2022-10-07T00:06:01.705Z,16.80
2022-10-07T00:08:29.033Z,16.90
2022-10-07T00:10:56.115Z,16.90
2022-10-07T00:13:23.133Z,16.80
2022-10-07T00:15:50.067Z,16.90
2022-10-07T00:18:16.924Z,16.80
2022-10-07T00:20:43.694Z,16.80
2022-10-07T00:23:10.814Z,16.80
2022-10-07T00:25:37.964Z,16.80
2022-10-07T00:28:05.696Z,16.70
2022-10-07T00:30:32.917Z,16.80
2022-10-07T00:32:59.978Z,16.70
2022-10-07T00:35:26.891Z,16.70
2022-10-07T00:37:53.912Z,16.80
2022-10-07T00:40:20.674Z,16.70
2022-10-07T00:42:47.495Z,16.70
2022-10-07T00:45:19.430Z,16.70
2022-10-07T00:47:48.670Z,16.70
2022-10-07T00:50:19.229Z,16.70
2022-10-07T00:52:55.361Z,16.70
2022-10-07T00:55:25.140Z,17.30
2022-10-07T00:57:54.027Z,16.60
2022-10-07T01:00:24.368Z,16.70
2022-10-07T01:02:51.889Z,16.60
2022-10-07T01:05:19.904Z,16.70
2022-10-07T01:07:48.111Z,16.60
2022-10-07T01:10:18.764Z,16.60
2022-10-07T01:12:51.673Z,16.60
2022-10-07T01:15:53.426Z,16.60
2022-10-07T01:18:47.617Z,16.60
2022-10-07T01:21:26.705Z,16.60
2022-10-07T01:24:16.264Z,16.60
2022-10-07T01:26:51.318Z,16.60
2022-10-07T01:29:21.987Z,16.50
2022-10-07T01:32:34.500Z,16.50
2022-10-07T01:35:02.133Z,16.50
2022-10-07T01:37:31.665Z,16.50
2022-10-07T01:40:06.235Z,17.30
2022-10-07T01:42:33.692Z,16.50
2022-10-07T01:45:00.859Z,16.50
2022-10-07T01:47:28.080Z,16.50
2022-10-07T01:49:54.708Z,16.60
2022-10-07T01:52:30.718Z,16.50
2022-10-07T01:55:35.247Z,16.40
2022-10-07T01:58:25.939Z,16.50
2022-10-07T02:01:03.349Z,16.40
2022-10-07T02:03:39.319Z,16.50
2022-10-07T02:06:05.959Z,16.40
2022-10-07T02:08:44.569Z,16.40
2022-10-07T02:11:17.778Z,16.40
2022-10-07T02:14:06.055Z,16.40
2022-10-07T02:16:47.036Z,16.40
2022-10-07T02:19:22.391Z,16.40
2022-10-07T02:21:50.604Z,16.90
2022-10-07T02:24:19.569Z,16.30
2022-10-07T02:26:47.539Z,18.40
2022-10-07T02:29:16.144Z,17.60
2022-10-07T02:31:43.569Z,16.30
2022-10-07T02:34:17.484Z,16.40
2022-10-07T02:36:50.995Z,16.40
2022-10-07T02:39:17.822Z,16.30
2022-10-07T02:42:25.247Z,16.40
2022-10-07T02:45:25.892Z,16.30
2022-10-07T02:48:01.906Z,16.30
2022-10-07T02:50:35.429Z,17.00
2022-10-07T02:53:02.238Z,16.30
2022-10-07T02:55:29.283Z,16.30
2022-10-07T02:57:59.732Z,16.30
2022-10-07T03:00:29.323Z,16.30
2022-10-07T03:03:02.858Z,16.20
2022-10-07T03:05:30.137Z,16.30
2022-10-07T03:08:00.456Z,16.20
2022-10-07T03:10:28.688Z,16.20
2022-10-07T03:12:55.784Z,16.20
2022-10-07T03:15:23.416Z,16.20
2022-10-07T03:17:50.443Z,17.10
2022-10-07T03:20:17.110Z,16.20
2022-10-07T03:22:44.938Z,17.10
2022-10-07T03:25:12.789Z,16.20
2022-10-07T03:27:39.832Z,16.20
2022-10-07T03:30:07.311Z,16.20
2022-10-07T03:32:34.056Z,16.10
2022-10-07T03:35:00.750Z,16.60
2022-10-07T03:37:29.972Z,16.10
2022-10-07T03:39:59.500Z,16.10
2022-10-07T03:42:26.112Z,16.10
2022-10-07T03:44:52.729Z,16.10
2022-10-07T03:47:21.699Z,16.10
2022-10-07T03:49:48.404Z,16.00
2022-10-07T03:52:17.445Z,17.30
2022-10-07T03:54:44.073Z,16.10
2022-10-07T03:57:29.407Z,16.30
2022-10-07T03:59:56.001Z,16.10
2022-10-07T04:02:25.989Z,16.10
2022-10-07T04:04:52.763Z,15.90
2022-10-07T04:07:21.376Z,16.10
2022-10-07T04:09:48.151Z,16.10
2022-10-07T04:12:14.904Z,16.00
2022-10-07T04:14:41.610Z,16.10
2022-10-07T04:17:08.247Z,16.00
2022-10-07T04:19:35.507Z,16.00
2022-10-07T04:22:08.321Z,16.50
2022-10-07T04:24:35.433Z,16.00
2022-10-07T04:27:04.931Z,16.00
2022-10-07T04:29:35.438Z,16.00
2022-10-07T04:32:05.678Z,16.10
2022-10-07T04:34:32.502Z,16.00
2022-10-07T04:37:01.258Z,16.00
2022-10-07T04:39:48.990Z,16.00
2022-10-07T04:42:34.174Z,16.00
2022-10-07T04:45:00.841Z,17.40
2022-10-07T04:47:27.435Z,17.50
2022-10-07T04:49:55.154Z,16.00
2022-10-07T04:52:21.815Z,16.20
2022-10-07T04:54:48.489Z,17.10
2022-10-07T04:57:15.194Z,16.10
2022-10-07T04:59:42.965Z,16.00
2022-10-07T05:02:10.062Z,16.00
2022-10-07T05:04:36.985Z,16.10
2022-10-07T05:07:04.108Z,16.00
2022-10-07T05:09:30.818Z,16.00
2022-10-07T05:11:57.418Z,16.00
2022-10-07T05:14:24.208Z,16.00
2022-10-07T05:16:51.227Z,16.00
2022-10-07T05:19:17.869Z,16.00
2022-10-07T05:21:44.580Z,16.00
2022-10-07T05:24:11.524Z,16.00
2022-10-07T05:26:38.205Z,16.00
2022-10-07T05:29:06.831Z,16.60
2022-10-07T05:31:33.496Z,16.00
2022-10-07T05:34:00.370Z,16.00
2022-10-07T05:36:27.138Z,16.60
2022-10-07T05:38:57.941Z,17.50
2022-10-07T05:41:25.211Z,16.00
2022-10-07T05:43:51.847Z,16.00
2022-10-07T05:46:20.562Z,18.70
2022-10-07T05:48:48.659Z,18.30
2022-10-07T05:51:15.531Z,16.00
2022-10-07T05:53:42.998Z,16.00
2022-10-07T05:56:12.554Z,16.00
2022-10-07T05:58:39.369Z,16.20
2022-10-07T06:01:12.907Z,16.00
2022-10-07T06:03:39.820Z,15.80
2022-10-07T06:06:07.157Z,16.00
2022-10-07T06:08:33.798Z,16.00
2022-10-07T06:11:20.745Z,16.00
2022-10-07T06:13:51.699Z,16.00
2022-10-07T06:16:18.718Z,15.90
2022-10-07T06:18:45.994Z,15.90
2022-10-07T06:21:12.710Z,16.00
2022-10-07T06:23:39.659Z,16.00
2022-10-07T06:26:09.698Z,16.00
2022-10-07T06:28:41.103Z,16.00
2022-10-07T06:31:10.796Z,16.60
2022-10-07T06:33:37.990Z,16.60
2022-10-07T06:36:09.164Z,18.10
2022-10-07T06:38:35.779Z,16.00
2022-10-07T06:41:03.825Z,16.00
2022-10-07T06:43:34.434Z,16.20
2022-10-07T06:46:02.982Z,16.00
2022-10-07T06:48:33.202Z,16.10
2022-10-07T06:51:03.073Z,16.10
2022-10-07T06:53:31.088Z,16.10
2022-10-07T06:56:01.963Z,16.60
2022-10-07T06:58:29.134Z,16.10
2022-10-07T07:00:56.483Z,15.70
2022-10-07T07:03:23.917Z,16.30
2022-10-07T07:05:54.866Z,16.30
2022-10-07T07:08:27.829Z,16.20
2022-10-07T07:10:54.980Z,16.30
2022-10-07T07:13:22.307Z,16.30
2022-10-07T07:15:56.271Z,16.20
2022-10-07T07:18:23.270Z,16.20
2022-10-07T07:20:49.910Z,16.30
2022-10-07T07:23:16.547Z,16.30
2022-10-07T07:25:46.540Z,16.30
2022-10-07T07:28:15.291Z,16.30
2022-10-07T07:30:42.646Z,16.30
2022-10-07T07:33:09.475Z,16.30
2022-10-07T07:35:38.456Z,17.50
2022-10-07T07:38:05.237Z,16.30
2022-10-07T07:40:31.846Z,16.40
2022-10-07T07:42:58.459Z,16.40
2022-10-07T07:45:25.296Z,16.40
2022-10-07T07:47:52.876Z,16.40
2022-10-07T07:50:27.307Z,16.50
2022-10-07T07:52:57.298Z,16.50
2022-10-07T07:55:24.526Z,16.50
2022-10-07T07:57:51.214Z,17.90
2022-10-07T08:00:18.922Z,17.00
2022-10-07T08:02:46.166Z,16.90
2022-10-07T08:05:12.958Z,16.70
2022-10-07T08:07:39.971Z,16.60
2022-10-07T08:10:07.211Z,16.90
2022-10-07T08:12:34.064Z,16.80
2022-10-07T08:15:00.682Z,16.90
2022-10-07T08:17:27.280Z,17.00
2022-10-07T08:19:55.470Z,17.00
2022-10-07T08:22:22.304Z,17.00
2022-10-07T08:24:49.145Z,17.10
2022-10-07T08:27:15.815Z,18.30
2022-10-07T08:29:42.447Z,17.40
2022-10-07T08:32:09.278Z,17.30
2022-10-07T08:34:36.716Z,17.30
2022-10-07T08:37:03.874Z,17.50
2022-10-07T08:39:31.301Z,17.60
2022-10-07T08:42:08.464Z,17.60
2022-10-07T08:44:44.234Z,17.70
2022-10-07T08:47:30.583Z,17.80
2022-10-07T08:50:20.336Z,17.90
2022-10-07T08:52:58.070Z,18.00
2022-10-07T08:55:42.068Z,18.10
2022-10-07T08:58:26.912Z,18.10
2022-10-07T09:01:03.605Z,18.20
2022-10-07T09:03:51.686Z,18.30
2022-10-07T09:06:28.388Z,18.40
2022-10-07T09:09:04.307Z,18.50
2022-10-07T09:11:32.113Z,18.60
2022-10-07T09:14:29.174Z,18.70
2022-10-07T09:17:10.650Z,18.90
2022-10-07T09:19:45.134Z,18.90
2022-10-07T09:22:21.354Z,19.70
2022-10-07T09:24:56.543Z,20.00
2022-10-07T09:27:24.247Z,19.20
2022-10-07T09:29:51.408Z,19.20
2022-10-07T09:32:20.491Z,20.60
2022-10-07T09:34:47.646Z,19.40
2022-10-07T09:37:21.477Z,19.50
2022-10-07T09:39:50.672Z,19.60
2022-10-07T09:42:39.035Z,19.70
2022-10-07T09:45:31.395Z,19.80
2022-10-07T09:48:07.448Z,19.90
2022-10-07T09:50:41.660Z,20.00
2022-10-07T09:53:19.553Z,20.10
2022-10-07T09:55:47.191Z,20.20
2022-10-07T09:58:25.029Z,20.20
2022-10-07T10:00:53.889Z,21.40
2022-10-07T10:03:22.377Z,20.40
2022-10-07T10:06:08.917Z,20.40
2022-10-07T10:08:37.968Z,20.50
2022-10-07T10:11:28.366Z,20.60
2022-10-07T10:13:55.193Z,20.60
2022-10-07T10:16:24.748Z,20.70
2022-10-07T10:18:58.960Z,20.80
2022-10-07T10:21:36.761Z,20.90
2022-10-07T10:24:15.289Z,20.90
2022-10-07T10:27:05.311Z,21.00
2022-10-07T10:29:53.731Z,21.00
2022-10-07T10:32:28.902Z,21.10
2022-10-07T10:35:18.716Z,21.90
2022-10-07T10:38:00.427Z,21.20
2022-10-07T10:40:40.918Z,21.30
2022-10-07T10:43:20.294Z,21.30
2022-10-07T10:46:01.553Z,21.40
2022-10-07T10:48:55.654Z,21.40
2022-10-07T10:51:50.171Z,21.50
2022-10-07T10:54:24.338Z,21.50
2022-10-07T10:57:01.290Z,21.60
2022-10-07T10:59:49.574Z,21.70
2022-10-07T11:02:38.536Z,21.70
2022-10-07T11:05:26.309Z,21.80
2022-10-07T11:08:17.157Z,21.80
2022-10-07T11:10:46.800Z,19.70
2022-10-07T11:13:13.390Z,22.00
2022-10-07T11:15:44.699Z,22.10
2022-10-07T11:18:32.039Z,22.10
2022-10-07T11:21:00.293Z,22.10
2022-10-07T11:24:02.362Z,22.20
2022-10-07T11:30:00.321Z,22.30
2022-10-07T11:32:50.447Z,22.40
2022-10-07T11:35:59.106Z,22.40
2022-10-07T11:38:31.795Z,22.50
2022-10-07T11:41:03.756Z,22.50
2022-10-07T11:43:48.304Z,22.60
2022-10-07T11:46:25.348Z,22.70
2022-10-07T11:49:05.535Z,22.70
2022-10-07T11:51:50.510Z,22.80
2022-10-07T11:54:18.631Z,22.80
2022-10-07T11:56:49.428Z,22.90
2022-10-07T11:59:44.742Z,23.00
2022-10-07T12:02:30.294Z,23.00
2022-10-07T12:04:57.481Z,23.00
2022-10-07T12:07:39.622Z,23.10
2022-10-07T12:10:25.759Z,23.20
2022-10-07T12:12:55.064Z,23.20
2022-10-07T12:15:36.784Z,23.30
2022-10-07T12:18:06.463Z,23.40
2022-10-07T12:20:51.421Z,23.40
2022-10-07T12:23:18.396Z,24.80
2022-10-07T12:25:46.989Z,24.10
2022-10-07T12:28:23.777Z,25.00
2022-10-07T12:30:55.794Z,23.60
2022-10-07T12:33:45.609Z,23.60
2022-10-07T12:36:21.544Z,23.70
2022-10-07T12:38:57.683Z,23.70
2022-10-07T12:41:30.826Z,23.70
2022-10-07T12:44:22.803Z,23.80
2022-10-07T12:46:51.622Z,23.80
2022-10-07T12:49:41.766Z,23.90
2022-10-07T12:52:20.040Z,23.70
2022-10-07T12:55:07.137Z,23.90
2022-10-07T12:57:37.119Z,23.90
2022-10-07T13:00:20.256Z,23.90
2022-10-07T13:03:33.575Z,23.90
2022-10-07T13:06:34.367Z,24.00
2022-10-07T13:09:04.150Z,24.00
2022-10-07T13:12:12.464Z,24.00
2022-10-07T13:15:24.714Z,23.90
2022-10-07T13:18:08.576Z,24.00
2022-10-07T13:20:37.211Z,24.00
2022-10-07T13:23:20.099Z,24.00
2022-10-07T13:25:54.202Z,24.00
2022-10-07T13:28:23.599Z,24.00
2022-10-07T13:30:54.576Z,24.00
2022-10-07T13:33:31.624Z,23.80
2022-10-07T13:36:13.401Z,23.80
2022-10-07T13:38:40.375Z,24.00
2022-10-07T13:41:21.966Z,24.10
2022-10-07T13:43:54.319Z,24.10
2022-10-07T13:46:27.071Z,24.10
2022-10-07T13:48:56.400Z,24.10
2022-10-07T13:51:35.822Z,24.20
2022-10-07T13:54:14.733Z,24.20
2022-10-07T13:56:42.298Z,24.30
2022-10-07T13:59:18.077Z,24.30
2022-10-07T14:01:48.799Z,24.30
2022-10-07T14:04:18.834Z,24.40
2022-10-07T14:06:52.364Z,24.40
2022-10-07T14:09:49.996Z,24.40
2022-10-07T14:12:25.095Z,24.40
2022-10-07T14:14:55.888Z,24.50
2022-10-07T14:17:28.283Z,24.50
2022-10-07T14:20:05.346Z,24.50
2022-10-07T14:22:39.114Z,24.50
2022-10-07T14:25:16.387Z,24.50
2022-10-07T14:27:47.072Z,24.60
2022-10-07T14:30:26.138Z,24.60
2022-10-07T14:33:32.672Z,24.50
2022-10-07T14:36:18.328Z,24.50
2022-10-07T14:38:47.677Z,24.60
2022-10-07T14:41:15.884Z,24.60
2022-10-07T14:43:47.661Z,24.50
2022-10-07T14:46:31.230Z,24.60
2022-10-07T14:48:58.050Z,24.60
2022-10-07T14:51:29.457Z,24.50
2022-10-07T14:54:01.807Z,24.50
2022-10-07T14:56:31.262Z,24.50
2022-10-07T14:58:58.264Z,24.50
2022-10-07T15:01:25.542Z,24.50
2022-10-07T15:03:52.738Z,24.60
2022-10-07T15:06:20.298Z,24.50
2022-10-07T15:08:48.076Z,24.50
2022-10-07T15:11:20.507Z,24.50
2022-10-07T15:13:48.293Z,24.50
2022-10-07T15:16:21.058Z,24.50
2022-10-07T15:18:52.425Z,24.50
2022-10-07T15:21:21.317Z,24.50
2022-10-07T15:23:54.832Z,24.50
2022-10-07T15:26:24.645Z,24.50
2022-10-07T15:28:56.513Z,24.50
2022-10-07T15:31:26.093Z,24.50
2022-10-07T15:33:57.071Z,24.50
2022-10-07T15:36:29.148Z,24.50
2022-10-07T15:38:58.895Z,24.50
2022-10-07T15:41:37.367Z,24.50
2022-10-07T15:44:06.734Z,24.40
2022-10-07T15:46:34.451Z,24.40
2022-10-07T15:49:01.414Z,24.40
2022-10-07T15:51:29.363Z,24.30
2022-10-07T15:53:56.171Z,24.30
2022-10-07T15:56:23.028Z,24.30
2022-10-07T15:58:49.677Z,24.20
2022-10-07T16:01:16.673Z,24.20
2022-10-07T16:03:46.116Z,24.10
2022-10-07T16:06:23.847Z,24.20
2022-10-07T16:08:51.549Z,24.10
2022-10-07T16:11:18.588Z,24.10
2022-10-07T16:13:47.421Z,24.10
2022-10-07T16:16:20.128Z,24.10
2022-10-07T16:18:49.208Z,24.00
2022-10-07T16:21:25.015Z,24.00
2022-10-07T16:23:56.346Z,23.90
2022-10-07T16:26:26.866Z,23.90
2022-10-07T16:29:13.304Z,23.90
2022-10-07T16:31:42.196Z,23.90
2022-10-07T16:34:10.934Z,23.80
2022-10-07T16:36:42.115Z,23.70
2022-10-07T16:39:11.716Z,23.70
2022-10-07T16:41:41.562Z,23.60
2022-10-07T16:44:09.132Z,23.60
2022-10-07T16:46:36.285Z,23.60
2022-10-07T16:49:05.442Z,23.50
2022-10-07T16:51:35.511Z,23.50
2022-10-07T16:54:07.557Z,23.50
2022-10-07T16:56:35.816Z,23.40
2022-10-07T16:59:05.068Z,23.40
2022-10-07T17:01:32.292Z,23.30
2022-10-07T17:04:00.141Z,23.20
2022-10-07T17:06:28.941Z,23.20
2022-10-07T17:08:56.898Z,23.20
2022-10-07T17:11:30.675Z,23.10
2022-10-07T17:14:07.479Z,23.10
2022-10-07T17:16:39.068Z,23.00
2022-10-07T17:19:06.697Z,22.90
2022-10-07T17:21:36.247Z,22.90
2022-10-07T17:24:04.012Z,22.90
2022-10-07T17:26:30.863Z,22.80
2022-10-07T17:29:09.784Z,22.70
2022-10-07T17:31:39.496Z,22.70
2022-10-07T17:34:07.436Z,22.60
2022-10-07T17:36:34.862Z,22.50
2022-10-07T17:39:02.509Z,22.50
2022-10-07T17:41:32.074Z,22.50
2022-10-07T17:44:00.583Z,22.40
2022-10-07T17:46:29.487Z,22.40
2022-10-07T17:48:58.013Z,22.30
2022-10-07T17:51:28.725Z,22.30
2022-10-07T17:53:56.625Z,22.20
2022-10-07T17:56:24.083Z,22.20
2022-10-07T17:58:51.319Z,22.20
2022-10-07T18:01:27.868Z,22.10
2022-10-07T18:04:05.051Z,22.00
2022-10-07T18:06:34.122Z,22.00
2022-10-07T18:09:05.000Z,22.00
2022-10-07T18:11:51.380Z,21.90
2022-10-07T18:14:37.002Z,21.90
2022-10-07T18:17:04.870Z,21.80
2022-10-07T18:19:31.808Z,21.70
2022-10-07T18:21:58.542Z,21.70
2022-10-07T18:24:28.290Z,21.70
2022-10-07T18:27:00.170Z,21.60
2022-10-07T18:29:28.068Z,21.60
2022-10-07T18:31:54.972Z,21.60
2022-10-07T18:34:22.230Z,21.50
2022-10-07T18:36:53.803Z,21.50
2022-10-07T18:39:22.915Z,21.40
2022-10-07T18:41:49.700Z,21.40
2022-10-07T18:44:16.624Z,21.30
2022-10-07T18:46:43.498Z,21.30
2022-10-07T18:49:13.659Z,21.30
2022-10-07T18:51:41.496Z,21.20
2022-10-07T18:54:08.642Z,21.20
2022-10-07T18:56:39.926Z,21.20
2022-10-07T18:59:08.782Z,21.10
2022-10-07T19:01:36.621Z,21.10
2022-10-07T19:04:03.797Z,21.00
2022-10-07T19:06:33.449Z,21.00
2022-10-07T19:09:02.960Z,21.00
2022-10-07T19:11:33.449Z,20.90
2022-10-07T19:14:00.618Z,20.90
2022-10-07T19:16:30.191Z,20.80
2022-10-07T19:18:59.059Z,20.80
2022-10-07T19:21:26.415Z,20.80
2022-10-07T19:23:55.640Z,20.70
2022-10-07T19:26:24.528Z,20.70
2022-10-07T19:28:52.662Z,20.70
2022-10-07T19:31:25.205Z,20.70
2022-10-07T19:33:56.251Z,20.70
2022-10-07T19:36:23.562Z,20.70
2022-10-07T19:38:54.232Z,20.60
2022-10-07T19:41:23.474Z,20.60
2022-10-07T19:43:52.377Z,20.60
2022-10-07T19:46:21.868Z,20.50
2022-10-07T19:48:48.865Z,20.50
2022-10-07T19:51:17.942Z,20.40
2022-10-07T19:53:47.202Z,20.40
2022-10-07T19:56:20.497Z,20.40
2022-10-07T19:58:52.188Z,20.40
2022-10-07T20:01:21.445Z,20.30
2022-10-07T20:03:49.490Z,20.30
2022-10-07T20:06:16.773Z,20.30
2022-10-07T20:08:46.536Z,20.20
2022-10-07T20:11:14.236Z,20.30
2022-10-07T20:13:41.349Z,20.20
2022-10-07T20:16:19.086Z,20.20
2022-10-07T20:18:48.064Z,20.20
2022-10-07T20:21:23.868Z,20.10
2022-10-07T20:23:53.939Z,20.10
2022-10-07T20:26:30.662Z,20.10
2022-10-07T20:28:59.567Z,20.10
2022-10-07T20:31:29.689Z,20.10
2022-10-07T20:33:57.981Z,20.00
2022-10-07T20:36:30.185Z,20.00
2022-10-07T20:39:17.932Z,20.00
2022-10-07T20:42:03.462Z,19.90
2022-10-07T20:44:30.511Z,19.90
2022-10-07T20:46:57.497Z,20.00
2022-10-07T20:49:28.393Z,19.90
2022-10-07T20:52:04.173Z,19.90
2022-10-07T20:54:32.001Z,19.90
2022-10-07T20:56:59.476Z,19.90
2022-10-07T20:59:30.034Z,19.90
2022-10-07T21:01:57.606Z,19.90
2022-10-07T21:04:28.728Z,19.90
2022-10-07T21:06:56.921Z,19.80
2022-10-07T21:09:24.708Z,19.80
2022-10-07T21:11:52.179Z,19.70
2022-10-07T21:14:19.661Z,19.80
2022-10-07T21:16:47.875Z,19.80
2022-10-07T21:19:15.663Z,19.80
2022-10-07T21:21:42.669Z,19.80
2022-10-07T21:24:09.696Z,19.70
2022-10-07T21:26:37.283Z,19.70
2022-10-07T21:29:07.060Z,19.70
2022-10-07T21:31:36.076Z,19.70
2022-10-07T21:34:07.927Z,19.70
2022-10-07T21:36:37.698Z,19.60
2022-10-07T21:39:05.026Z,19.60
2022-10-07T21:41:34.507Z,19.60
2022-10-07T21:44:03.619Z,19.50
2022-10-07T21:46:32.476Z,19.50
2022-10-07T21:48:59.842Z,19.50
2022-10-07T21:51:27.433Z,19.50
2022-10-07T21:53:55.342Z,19.50
2022-10-07T21:56:23.321Z,19.50
2022-10-07T21:58:53.012Z,19.40
2022-10-07T22:01:23.937Z,19.40
2022-10-07T22:03:59.631Z,19.40
2022-10-07T22:06:46.611Z,19.40
2022-10-07T22:09:14.774Z,19.30
2022-10-07T22:11:42.283Z,19.30
2022-10-07T22:14:12.750Z,19.30
2022-10-07T22:16:40.572Z,19.20
2022-10-07T22:19:07.455Z,19.20
2022-10-07T22:21:38.440Z,19.20
2022-10-07T22:24:07.125Z,19.20
2022-10-07T22:26:39.120Z,19.10
2022-10-07T22:29:08.062Z,19.10
2022-10-07T22:31:35.098Z,19.10
2022-10-07T22:34:02.086Z,19.10
2022-10-07T22:36:29.566Z,19.10
2022-10-07T22:38:57.068Z,19.10
2022-10-07T22:41:24.707Z,19.00
2022-10-07T22:43:55.274Z,19.00
2022-10-07T22:46:26.600Z,19.00
2022-10-07T22:48:57.950Z,19.00
2022-10-07T22:51:28.601Z,19.00
2022-10-07T22:53:56.757Z,18.90
2022-10-07T22:56:25.747Z,18.90
2022-10-07T22:58:54.791Z,18.90
2022-10-07T23:01:22.113Z,18.80
2022-10-07T23:03:49.072Z,18.90
2022-10-07T23:06:18.266Z,18.90
2022-10-07T23:08:45.916Z,18.80
2022-10-07T23:11:23.307Z,18.80
2022-10-07T23:13:55.008Z,18.80
2022-10-07T23:16:24.267Z,18.80
2022-10-07T23:18:53.625Z,18.80
2022-10-07T23:21:26.085Z,18.80
2022-10-07T23:24:01.682Z,18.80
2022-10-07T23:26:33.446Z,18.70
2022-10-07T23:29:01.010Z,18.80
2022-10-07T23:31:29.545Z,18.80
2022-10-07T23:33:57.705Z,18.70
2022-10-07T23:36:25.396Z,18.70
2022-10-07T23:38:52.873Z,18.70
2022-10-07T23:41:22.496Z,18.70
2022-10-07T23:43:50.482Z,18.70
2022-10-07T23:46:18.795Z,18.70
2022-10-07T23:48:47.048Z,18.70
2022-10-07T23:51:19.250Z,18.70
2022-10-07T23:53:46.093Z,18.80
2022-10-07T23:56:13.021Z,18.70
2022-10-07T23:58:40.133Z,18.70
